Jamestown, Pennsylvania
Current Conditions -  °F | °C
As of 1:53 PM on Friday 28 Nov 2014 (Local Time) from KGKJ Reporting Station
Overcast Overcast  
Wind Chill: 17°   Ceiling: 2300
Heat Index: 24°   Visibility: 9mi
Dew Point: 15°   Wind: 6mph
Humidity: 69%   Direction: NA
Pressure: 30.2"   Gusts: NA
Location:  41.48°N, 80.44°W
Report Text: KGKJ 281853Z AUTO VRB05KT 9SM OVC023 M04/M09 A3020 RMK AO2 SNB30E41 SLP247 P0000 T10441094 TSNO
Loading
Personal Weather Stations






























Interactive Weather Map New forecast layout! Learn more

10-Day Weather Forecast

Advertisements
Track Severe Weather on mobile